Time;durP1;ratioP1;P1;durP2;ratioP2;P2;SDS_P1;SDS_P2;PMS_P1;PMS_P2;Temp;Humidity;BMP_temperature;BMP_pressure;BME280_temperature;BME280_humidity;BME280_pressure;Samples;Min_cycle;Max_cycle;Signal;HPM_P1;HPM_P2
2022/01/31 00:02:24;;;;;;;5.23;2.70;;;3.90;99.90;;;;;;5009571;28;20993;-68
2022/01/31 00:04:50;;;;;;;4.93;2.30;;;3.90;99.90;;;;;;5017771;28;20477;-68
2022/01/31 00:07:15;;;;;;;6.63;2.27;;;3.90;99.90;;;;;;5036622;28;20227;-68
2022/01/31 00:09:43;;;;;;;4.20;2.40;;;3.90;99.90;;;;;;5036004;28;20304;-68
2022/01/31 00:12:16;;;;;;;3.60;2.30;;;3.90;99.90;;;;;;5014913;28;20224;-68
2022/01/31 00:14:48;;;;;;;4.60;2.70;;;3.80;99.90;;;;;;5010051;28;20439;-68
2022/01/31 00:17:14;;;;;;;3.10;1.83;;;3.70;99.90;;;;;;5021854;28;20454;-69
2022/01/31 00:19:41;;;;;;;7.10;2.97;;;3.70;99.90;;;;;;5036531;28;20443;-68
2022/01/31 00:22:09;;;;;;;4.03;2.40;;;3.60;99.90;;;;;;5018906;28;20224;-68
2022/01/31 00:24:35;;;;;;;2.67;1.63;;;3.60;99.90;;;;;;5035578;28;20450;-68
2022/01/31 00:27:02;;;;;;;9.30;2.60;;;3.60;99.90;;;;;;5030691;28;20472;-68
2022/01/31 00:29:28;;;;;;;12.43;2.30;;;3.60;99.90;;;;;;5016920;28;20713;-69
2022/01/31 00:31:54;;;;;;;4.50;2.50;;;3.60;99.90;;;;;;5016977;28;20447;-69
2022/01/31 00:34:20;;;;;;;3.50;2.67;;;3.60;99.90;;;;;;5035214;28;20602;-68
2022/01/31 00:36:46;;;;;;;3.47;2.23;;;3.60;99.90;;;;;;5018076;28;20447;-68
2022/01/31 00:39:11;;;;;;;2.87;2.20;;;3.60;99.90;;;;;;4997341;28;20240;-68
2022/01/31 00:41:38;;;;;;;4.37;2.40;;;3.60;99.90;;;;;;5026576;28;20228;-69
2022/01/31 00:46:42;;;;;;;8.53;3.07;;;3.70;99.90;;;;;;5034030;28;20318;-67
2022/01/31 00:49:35;;;;;;;2.73;2.53;;;3.80;99.90;;;;;;5030396;28;20451;-68
2022/01/31 00:52:01;;;;;;;7.70;2.87;;;3.80;99.90;;;;;;5012241;28;21492;-68
2022/01/31 00:54:28;;;;;;;9.43;2.60;;;3.80;99.90;;;;;;4995596;28;20523;-68
2022/01/31 00:56:53;;;;;;;4.57;2.60;;;3.80;99.90;;;;;;5007851;28;20454;-68
2022/01/31 00:59:19;;;;;;;4.90;2.60;;;3.80;99.90;;;;;;5015025;28;20451;-68
2022/01/31 01:01:45;;;;;;;11.33;3.67;;;3.90;99.90;;;;;;5013833;28;20689;-68
2022/01/31 01:04:11;;;;;;;5.37;2.83;;;3.90;99.90;;;;;;5032237;28;20471;-68
2022/01/31 01:06:38;;;;;;;2.87;2.50;;;3.90;99.90;;;;;;5014789;28;20486;-69
2022/01/31 01:09:04;;;;;;;4.00;2.80;;;3.90;99.90;;;;;;5030874;28;20693;-68
2022/01/31 01:11:30;;;;;;;8.40;3.23;;;3.80;99.90;;;;;;5013939;28;20478;-68
2022/01/31 01:13:56;;;;;;;5.37;2.83;;;3.90;99.90;;;;;;5036142;28;20474;-68
2022/01/31 01:16:21;;;;;;;9.20;2.90;;;3.90;99.90;;;;;;5031327;28;20952;-68
2022/01/31 01:18:47;;;;;;;5.17;3.00;;;3.90;99.90;;;;;;5030079;28;20240;-69
2022/01/31 01:21:13;;;;;;;7.83;3.27;;;3.90;99.90;;;;;;5011267;28;20229;-68
2022/01/31 01:23:38;;;;;;;8.33;2.80;;;3.90;99.90;;;;;;5014466;28;20370;-68
2022/01/31 01:26:04;;;;;;;4.87;2.80;;;4.00;99.90;;;;;;5032058;28;20777;-69
2022/01/31 01:28:30;;;;;;;4.73;2.60;;;3.90;99.90;;;;;;5013966;28;20223;-68
2022/01/31 01:30:57;;;;;;;4.40;2.83;;;3.90;99.90;;;;;;5022110;28;20295;-68
2022/01/31 01:33:24;;;;;;;6.30;3.57;;;4.00;99.90;;;;;;5029944;28;20463;-68
2022/01/31 01:35:53;;;;;;;3.23;2.40;;;3.90;99.90;;;;;;5013479;28;20451;-68
2022/01/31 01:38:27;;;;;;;2.60;2.13;;;4.00;99.90;;;;;;5030339;28;20996;-68
2022/01/31 01:40:55;;;;;;;3.70;2.30;;;4.00;99.90;;;;;;4997829;28;20538;-68
2022/01/31 01:43:21;;;;;;;3.63;2.07;;;4.00;99.90;;;;;;5001473;28;20456;-66
2022/01/31 01:45:51;;;;;;;2.33;1.93;;;4.00;99.90;;;;;;5035278;28;20819;-69
2022/01/31 01:48:18;;;;;;;3.87;2.50;;;3.90;99.90;;;;;;5014687;28;20811;-68
2022/01/31 01:50:45;;;;;;;5.60;2.67;;;3.90;99.90;;;;;;5026264;28;20534;-68
2022/01/31 01:53:12;;;;;;;5.17;3.00;;;3.90;99.90;;;;;;5030209;28;20447;-69
2022/01/31 01:55:38;;;;;;;3.63;2.03;;;3.90;99.90;;;;;;5014165;28;20463;-69
2022/01/31 01:58:13;;;;;;;3.73;2.33;;;3.90;99.90;;;;;;5013964;28;20451;-68
2022/01/31 02:00:50;;;;;;;4.87;2.40;;;3.90;99.90;;;;;;5011580;28;20486;-68
2022/01/31 02:03:21;;;;;;;3.10;2.27;;;3.90;99.90;;;;;;5020947;28;20469;-68
2022/01/31 02:05:48;;;;;;;1.90;1.73;;;3.90;99.90;;;;;;5013547;28;20491;-68
2022/01/31 02:08:17;;;;;;;6.07;3.07;;;3.90;99.90;;;;;;5013361;28;20976;-68
2022/01/31 02:10:42;;;;;;;9.67;2.77;;;3.90;99.90;;;;;;5021365;28;20497;-68
2022/01/31 02:13:12;;;;;;;4.50;2.80;;;3.80;99.90;;;;;;4997544;28;20444;-68
2022/01/31 02:16:01;;;;;;;4.37;2.70;;;3.80;99.90;;;;;;5002361;28;20462;-69
2022/01/31 02:18:49;;;;;;;8.43;2.27;;;3.90;99.90;;;;;;5015695;28;20440;-68
2022/01/31 02:21:43;;;;;;;5.00;2.33;;;3.80;99.90;;;;;;5011583;28;20450;-69
2022/01/31 02:24:30;;;;;;;3.73;2.40;;;3.90;99.90;;;;;;5022664;28;20516;-68
2022/01/31 02:27:14;;;;;;;6.33;2.47;;;3.90;99.90;;;;;;5014781;28;20569;-68
2022/01/31 02:29:39;;;;;;;2.80;2.07;;;3.90;99.90;;;;;;5012712;28;20506;-68
2022/01/31 02:32:06;;;;;;;5.67;2.43;;;3.80;99.90;;;;;;5020819;28;20228;-68
2022/01/31 02:34:32;;;;;;;5.33;2.77;;;3.80;99.90;;;;;;5028567;28;20212;-69
2022/01/31 02:36:58;;;;;;;3.30;2.10;;;3.80;99.90;;;;;;5037598;28;20526;-68
2022/01/31 02:39:23;;;;;;;7.87;2.30;;;3.80;99.90;;;;;;5013223;28;20503;-68
2022/01/31 02:41:49;;;;;;;8.57;2.37;;;3.70;99.90;;;;;;5011829;28;20290;-68
2022/01/31 02:44:16;;;;;;;5.80;1.93;;;3.70;99.90;;;;;;5012928;28;20964;-68
2022/01/31 02:47:13;;;;;;;3.70;2.37;;;3.70;99.90;;;;;;5013030;28;20232;-69
2022/01/31 02:49:49;;;;;;;3.10;2.30;;;3.60;99.90;;;;;;5020575;28;20451;-68
2022/01/31 02:52:18;;;;;;;9.83;2.13;;;3.60;99.90;;;;;;5010438;28;20461;-67
2022/01/31 02:54:44;;;;;;;2.90;2.30;;;3.60;99.90;;;;;;5021590;28;20456;-68
2022/01/31 02:57:10;;;;;;;2.90;2.60;;;3.50;99.90;;;;;;5013084;28;20451;-68
2022/01/31 02:59:37;;;;;;;2.03;1.80;;;3.50;99.90;;;;;;5027247;28;20459;-68
2022/01/31 03:02:04;;;;;;;5.23;2.13;;;3.50;99.90;;;;;;5037517;28;20463;-68
2022/01/31 03:04:30;;;;;;;3.43;2.27;;;3.50;99.90;;;;;;5012723;28;20464;-68
2022/01/31 03:06:56;;;;;;;6.63;2.40;;;3.50;99.90;;;;;;5012497;28;20470;-69
2022/01/31 03:09:24;;;;;;;6.30;2.90;;;3.50;99.90;;;;;;5012927;28;20479;-68
2022/01/31 03:11:52;;;;;;;3.50;2.03;;;3.50;99.90;;;;;;5016991;28;20964;-68
2022/01/31 03:14:22;;;;;;;7.13;2.40;;;3.60;99.90;;;;;;5028483;28;20463;-67
2022/01/31 03:16:51;;;;;;;6.73;3.10;;;3.50;99.90;;;;;;5027879;28;20477;-68
2022/01/31 03:19:26;;;;;;;2.97;2.00;;;3.50;99.90;;;;;;5021368;28;20539;-68
2022/01/31 03:21:56;;;;;;;5.87;2.77;;;3.50;99.90;;;;;;5003909;28;20463;-68
2022/01/31 03:24:22;;;;;;;10.70;2.73;;;3.50;99.90;;;;;;5010391;28;20876;-68
2022/01/31 03:26:48;;;;;;;3.37;2.57;;;3.50;99.90;;;;;;5011424;28;20521;-67
2022/01/31 03:29:16;;;;;;;5.60;2.60;;;3.50;99.90;;;;;;5012335;28;20213;-68
2022/01/31 03:31:42;;;;;;;7.20;2.90;;;3.50;99.90;;;;;;5036152;28;20455;-69
2022/01/31 03:34:08;;;;;;;2.70;2.50;;;3.50;99.90;;;;;;5028432;28;20225;-68
2022/01/31 03:36:34;;;;;;;2.80;2.50;;;3.50;99.90;;;;;;5026316;28;20224;-68
2022/01/31 03:39:00;;;;;;;9.57;2.60;;;3.50;99.90;;;;;;5011758;28;20447;-68
2022/01/31 03:41:26;;;;;;;9.43;3.57;;;3.50;99.90;;;;;;5012305;28;20220;-68
2022/01/31 03:43:52;;;;;;;12.03;3.03;;;3.50;99.90;;;;;;5002614;28;20522;-68
2022/01/31 03:46:18;;;;;;;4.40;2.80;;;3.50;99.90;;;;;;5042644;28;20310;-68
2022/01/31 03:48:45;;;;;;;6.03;2.90;;;3.50;99.90;;;;;;5028490;28;20235;-68
2022/01/31 03:51:37;;;;;;;2.60;2.40;;;3.50;99.90;;;;;;5026751;28;20463;-69
2022/01/31 03:54:03;;;;;;;6.87;2.70;;;3.50;99.90;;;;;;5044633;28;20460;-68
2022/01/31 03:56:30;;;;;;;15.23;3.97;;;3.50;99.90;;;;;;5026497;28;20220;-68
2022/01/31 03:59:18;;;;;;;7.03;2.30;;;3.50;99.90;;;;;;5015439;28;20463;-68
2022/01/31 04:01:44;;;;;;;8.17;2.80;;;3.50;99.90;;;;;;5028142;28;20463;-68
2022/01/31 04:04:10;;;;;;;7.40;2.87;;;3.60;99.90;;;;;;5029659;28;20463;-69
2022/01/31 04:06:38;;;;;;;3.43;3.03;;;3.60;99.90;;;;;;5028988;28;20235;-68
2022/01/31 04:09:04;;;;;;;9.00;3.07;;;3.60;99.90;;;;;;5029123;28;20220;-68
2022/01/31 04:11:30;;;;;;;7.63;2.97;;;3.60;99.90;;;;;;5020150;28;20487;-68
2022/01/31 04:13:55;;;;;;;10.87;3.80;;;3.60;99.90;;;;;;5016659;28;20517;-68
2022/01/31 04:16:21;;;;;;;3.73;2.90;;;3.60;99.90;;;;;;5030052;28;20229;-68
2022/01/31 04:18:46;;;;;;;5.10;2.50;;;3.60;99.90;;;;;;5028917;28;20224;-68
2022/01/31 04:21:13;;;;;;;2.67;2.47;;;3.60;99.90;;;;;;5019880;28;20239;-68
2022/01/31 04:23:39;;;;;;;9.47;2.50;;;3.60;99.90;;;;;;5023325;28;20229;-68
2022/01/31 04:26:11;;;;;;;8.27;3.63;;;3.60;99.90;;;;;;5024114;28;20518;-69
2022/01/31 04:29:14;;;;;;;4.00;2.60;;;3.60;99.90;;;;;;5016241;28;20571;-68
2022/01/31 04:31:41;;;;;;;4.40;2.50;;;3.70;99.90;;;;;;5028408;28;21018;-68
2022/01/31 04:34:07;;;;;;;8.83;2.40;;;3.70;99.90;;;;;;5031494;28;20509;-69
2022/01/31 04:36:33;;;;;;;3.60;2.70;;;3.70;99.90;;;;;;5033052;28;20842;-68
2022/01/31 04:38:58;;;;;;;4.53;2.43;;;3.70;99.90;;;;;;5020832;28;20490;-68
2022/01/31 04:41:24;;;;;;;7.37;2.60;;;3.70;99.90;;;;;;5033046;28;20486;-68
2022/01/31 04:43:51;;;;;;;7.27;3.50;;;3.70;99.90;;;;;;5031344;28;20221;-68
2022/01/31 04:46:16;;;;;;;7.07;3.07;;;3.70;99.90;;;;;;5033032;28;20741;-68
2022/01/31 04:48:45;;;;;;;6.80;3.20;;;3.80;99.90;;;;;;5015464;28;20463;-68
2022/01/31 04:51:13;;;;;;;8.83;2.80;;;3.70;99.90;;;;;;5015266;28;20267;-69
2022/01/31 04:53:39;;;;;;;5.13;3.20;;;3.70;99.90;;;;;;5032006;28;20452;-68
2022/01/31 04:56:05;;;;;;;10.70;3.63;;;3.70;99.90;;;;;;5018522;28;21004;-69
2022/01/31 04:58:32;;;;;;;3.57;2.83;;;3.70;99.90;;;;;;5015401;28;20839;-68
2022/01/31 05:00:58;;;;;;;10.50;3.03;;;3.70;99.90;;;;;;5031054;28;20486;-68
2022/01/31 05:03:24;;;;;;;6.30;3.23;;;3.70;99.90;;;;;;5027845;28;20450;-69
2022/01/31 05:05:50;;;;;;;4.47;3.40;;;3.70;99.90;;;;;;5032258;28;20516;-68
2022/01/31 05:08:18;;;;;;;3.53;3.20;;;3.70;99.90;;;;;;5032806;28;20459;-69
2022/01/31 05:10:46;;;;;;;16.03;3.43;;;3.70;99.90;;;;;;5032096;28;20462;-69
2022/01/31 05:13:14;;;;;;;3.90;3.03;;;3.70;99.90;;;;;;5031350;28;20459;-68
2022/01/31 05:15:40;;;;;;;3.13;2.40;;;3.70;99.90;;;;;;5032336;28;20487;-69
2022/01/31 05:18:06;;;;;;;7.20;3.13;;;3.60;99.90;;;;;;5032223;28;20529;-68
2022/01/31 05:20:32;;;;;;;7.20;2.93;;;3.60;99.90;;;;;;5032731;28;20808;-67
2022/01/31 05:22:57;;;;;;;3.50;2.80;;;3.60;99.90;;;;;;5031736;28;20228;-68
2022/01/31 05:25:23;;;;;;;4.97;3.20;;;3.60;99.90;;;;;;5017364;28;20232;-68
2022/01/31 05:27:49;;;;;;;2.93;2.40;;;3.60;99.90;;;;;;5020528;28;20220;-68
2022/01/31 05:30:16;;;;;;;3.63;2.70;;;3.60;99.90;;;;;;5032606;28;20220;-69
2022/01/31 05:32:42;;;;;;;8.47;3.20;;;3.60;99.90;;;;;;5014227;28;20237;-68
2022/01/31 05:35:08;;;;;;;2.60;2.40;;;3.60;99.90;;;;;;5040131;28;20459;-68
2022/01/31 05:37:35;;;;;;;5.63;2.90;;;3.60;99.90;;;;;;5027267;28;20471;-68
2022/01/31 05:40:04;;;;;;;5.47;3.03;;;3.60;99.90;;;;;;5031824;28;20521;-69
2022/01/31 05:42:31;;;;;;;5.40;2.90;;;3.60;99.90;;;;;;5031362;28;21003;-69
2022/01/31 05:44:56;;;;;;;6.37;2.60;;;3.60;99.90;;;;;;5031391;28;20454;-69
2022/01/31 05:47:22;;;;;;;5.90;2.80;;;3.60;99.90;;;;;;5032077;28;20471;-68
2022/01/31 05:49:47;;;;;;;4.40;2.77;;;3.60;99.90;;;;;;5031766;28;20252;-68
2022/01/31 05:52:13;;;;;;;2.60;2.33;;;3.60;99.90;;;;;;5030407;28;20229;-68
2022/01/31 05:54:41;;;;;;;4.80;2.53;;;3.60;99.90;;;;;;5032010;28;20275;-68
2022/01/31 05:57:07;;;;;;;3.70;2.43;;;3.60;99.90;;;;;;5014342;28;20256;-68
2022/01/31 05:59:34;;;;;;;3.80;2.30;;;3.60;99.90;;;;;;5031947;28;20463;-68
2022/01/31 06:02:01;;;;;;;5.07;3.10;;;3.60;99.90;;;;;;5029986;28;20463;-67
2022/01/31 06:04:28;;;;;;;2.43;2.10;;;3.60;99.90;;;;;;5031789;28;20466;-68
2022/01/31 06:06:54;;;;;;;2.03;1.93;;;3.60;99.90;;;;;;5029670;28;20524;-67
2022/01/31 06:09:19;;;;;;;6.47;2.93;;;3.60;99.90;;;;;;5013575;28;20456;-68
2022/01/31 06:11:48;;;;;;;4.30;2.20;;;3.60;99.90;;;;;;4997193;28;20303;-68
2022/01/31 06:14:15;;;;;;;2.47;2.20;;;3.60;99.90;;;;;;5013190;28;20251;-68
2022/01/31 06:16:40;;;;;;;3.60;2.10;;;3.60;99.90;;;;;;5017557;28;20464;-69
2022/01/31 06:19:06;;;;;;;2.40;2.07;;;3.60;99.90;;;;;;5031100;28;20605;-68
2022/01/31 06:21:32;;;;;;;2.77;1.90;;;3.60;99.90;;;;;;5013591;28;20224;-68
2022/01/31 06:23:57;;;;;;;3.80;2.10;;;3.60;99.90;;;;;;5018712;28;20216;-68
2022/01/31 06:26:23;;;;;;;4.10;2.00;;;3.60;99.90;;;;;;5029604;28;20310;-68
2022/01/31 06:29:27;;;;;;;2.07;1.87;;;3.60;99.90;;;;;;5018214;28;20303;-68
2022/01/31 06:32:07;;;;;;;4.17;2.27;;;3.60;99.90;;;;;;5024793;28;20987;-68
2022/01/31 06:34:33;;;;;;;2.53;2.03;;;3.60;99.90;;;;;;5023104;28;20467;-69
2022/01/31 06:37:02;;;;;;;2.13;1.93;;;3.60;99.90;;;;;;5022284;28;20471;-69
2022/01/31 06:39:28;;;;;;;2.33;2.13;;;3.60;99.90;;;;;;5008856;28;20244;-69
2022/01/31 06:41:54;;;;;;;2.00;1.73;;;3.60;99.90;;;;;;5027612;28;20467;-68
2022/01/31 06:44:20;;;;;;;6.60;1.73;;;3.60;99.90;;;;;;5029093;28;20455;-69
2022/01/31 06:46:45;;;;;;;1.90;1.80;;;3.60;99.90;;;;;;5011172;28;20233;-69
2022/01/31 06:49:11;;;;;;;1.83;1.37;;;3.60;99.90;;;;;;5025657;28;20702;-69
2022/01/31 06:51:37;;;;;;;2.50;1.30;;;3.60;99.90;;;;;;5028546;28;20220;-69
2022/01/31 06:54:03;;;;;;;1.30;1.20;;;3.60;99.90;;;;;;5028162;28;20215;-69
2022/01/31 06:56:30;;;;;;;2.80;1.90;;;3.60;99.90;;;;;;5011763;28;20274;-68
2022/01/31 06:58:57;;;;;;;1.07;1.00;;;3.60;99.90;;;;;;5010734;28;20483;-70
2022/01/31 07:01:25;;;;;;;5.33;1.70;;;3.60;99.90;;;;;;5013950;28;20455;-70
2022/01/31 07:03:54;;;;;;;1.67;1.57;;;3.60;99.90;;;;;;5028351;28;20467;-68
2022/01/31 07:06:21;;;;;;;1.30;1.20;;;3.60;99.90;;;;;;5011152;28;20471;-69
2022/01/31 07:08:48;;;;;;;2.00;1.40;;;3.60;99.90;;;;;;5028549;28;20484;-70
2022/01/31 07:11:15;;;;;;;2.30;1.87;;;3.60;99.90;;;;;;5015895;28;21043;-69
2022/01/31 07:13:43;;;;;;;4.67;2.23;;;3.60;99.90;;;;;;5028574;28;20481;-70
2022/01/31 07:16:09;;;;;;;2.87;1.80;;;3.60;99.90;;;;;;5011198;28;20995;-70
2022/01/31 07:18:36;;;;;;;2.00;1.70;;;3.60;99.90;;;;;;5011261;28;20447;-69
2022/01/31 07:21:03;;;;;;;2.23;2.00;;;3.60;99.90;;;;;;5028171;28;20220;-69
2022/01/31 07:23:49;;;;;;;2.13;1.53;;;3.60;99.90;;;;;;5010313;28;20858;-67
2022/01/31 07:26:14;;;;;;;2.07;1.70;;;3.60;99.90;;;;;;5012783;28;20471;-70
2022/01/31 07:28:43;;;;;;;3.00;1.63;;;3.70;99.90;;;;;;5027526;28;20981;-69
2022/01/31 07:31:11;;;;;;;1.60;1.40;;;3.70;99.90;;;;;;5017365;28;20308;-68
2022/01/31 07:33:37;;;;;;;3.33;1.47;;;3.70;99.90;;;;;;5022043;28;20521;-69
2022/01/31 07:36:03;;;;;;;1.27;1.17;;;3.70;99.90;;;;;;5026864;28;20871;-69
2022/01/31 07:38:29;;;;;;;2.50;1.23;;;3.70;99.90;;;;;;5009601;28;20990;-69
2022/01/31 07:40:57;;;;;;;1.60;1.50;;;3.70;99.90;;;;;;5004483;28;20471;-68
2022/01/31 07:43:23;;;;;;;0.80;0.77;;;3.80;99.90;;;;;;5007295;28;20229;-66
2022/01/31 07:45:49;;;;;;;1.30;1.20;;;3.80;99.90;;;;;;5026536;28;20475;-70
2022/01/31 07:48:15;;;;;;;3.57;1.10;;;3.80;99.90;;;;;;5009246;28;21015;-70
2022/01/31 07:50:41;;;;;;;1.40;0.87;;;3.80;99.90;;;;;;5008472;28;20247;-69
2022/01/31 07:53:06;;;;;;;1.67;1.10;;;3.90;99.90;;;;;;5013856;28;20247;-70
2022/01/31 07:55:33;;;;;;;1.07;0.80;;;3.90;99.90;;;;;;5011773;28;20232;-69
2022/01/31 07:57:58;;;;;;;0.70;0.70;;;3.90;99.90;;;;;;5008865;28;20275;-70
2022/01/31 08:00:24;;;;;;;1.03;1.00;;;4.00;99.90;;;;;;5008763;28;21003;-70
2022/01/31 08:02:52;;;;;;;2.37;1.80;;;4.00;99.90;;;;;;5036915;28;20219;-68
2022/01/31 08:05:21;;;;;;;1.70;1.60;;;4.10;99.90;;;;;;5030563;28;20462;-69
2022/01/31 08:07:47;;;;;;;1.67;1.10;;;4.10;99.90;;;;;;5012420;28;20542;-69
2022/01/31 08:10:13;;;;;;;1.17;0.90;;;4.10;99.90;;;;;;5029076;28;20461;-69
2022/01/31 08:12:41;;;;;;;3.43;3.10;;;4.10;99.90;;;;;;5009483;28;20459;-69
2022/01/31 08:15:09;;;;;;;1.80;1.70;;;4.10;99.90;;;;;;4991582;28;20228;-70
2022/01/31 08:17:35;;;;;;;1.80;1.70;;;4.10;99.90;;;;;;5015119;28;20482;-70
2022/01/31 08:20:01;;;;;;;1.90;1.67;;;4.10;99.90;;;;;;5013388;28;20444;-69
2022/01/31 08:22:27;;;;;;;1.70;1.60;;;4.10;99.90;;;;;;5013113;28;20467;-69
2022/01/31 08:24:52;;;;;;;4.33;2.57;;;4.10;99.90;;;;;;5031323;28;20490;-68
2022/01/31 08:27:18;;;;;;;8.43;5.30;;;4.10;99.90;;;;;;5031719;28;20232;-67
2022/01/31 08:29:44;;;;;;;7.13;6.20;;;4.10;99.90;;;;;;5030683;28;20258;-69
2022/01/31 08:32:18;;;;;;;6.13;5.03;;;4.10;99.90;;;;;;5034121;28;20232;-70
2022/01/31 08:37:28;;;;;;;7.50;6.80;;;4.20;99.90;;;;;;5031535;28;20470;-67
2022/01/31 08:39:54;;;;;;;3.70;3.40;;;4.20;99.90;;;;;;5013479;28;20463;-69
2022/01/31 08:42:20;;;;;;;4.53;2.17;;;4.30;99.90;;;;;;5030915;28;20228;-67
2022/01/31 08:44:47;;;;;;;2.20;2.00;;;4.30;99.90;;;;;;5038932;28;20227;-69
2022/01/31 08:47:13;;;;;;;1.17;1.07;;;4.30;99.90;;;;;;5030574;28;20558;-69
2022/01/31 08:49:39;;;;;;;1.67;1.20;;;4.40;99.90;;;;;;5032227;28;20526;-69
2022/01/31 08:52:05;;;;;;;2.20;2.00;;;4.40;99.90;;;;;;5031100;28;20315;-70
2022/01/31 08:54:31;;;;;;;2.37;2.17;;;4.40;99.90;;;;;;5030339;28;20562;-69
2022/01/31 08:56:57;;;;;;;2.00;1.80;;;4.50;99.90;;;;;;5018609;28;20467;-69
2022/01/31 08:59:25;;;;;;;2.93;2.73;;;4.50;99.90;;;;;;5037773;28;20512;-69
2022/01/31 09:02:03;;;;;;;6.30;3.77;;;4.50;99.90;;;;;;5033961;28;20475;-69
2022/01/31 09:04:34;;;;;;;8.73;3.37;;;4.50;99.90;;;;;;5014198;28;20919;-69
2022/01/31 09:07:02;;;;;;;9.67;5.23;;;4.50;99.90;;;;;;5011670;28;20521;-70
2022/01/31 09:09:30;;;;;;;11.20;6.00;;;4.60;99.90;;;;;;5011536;28;20465;-69
2022/01/31 09:11:57;;;;;;;3.30;3.00;;;4.60;99.90;;;;;;5027857;28;20452;-69
2022/01/31 09:14:24;;;;;;;2.87;2.03;;;4.60;99.90;;;;;;5011542;28;20454;-70
2022/01/31 09:16:50;;;;;;;1.70;0.90;;;4.60;99.90;;;;;;5027911;28;20543;-69
2022/01/31 09:19:15;;;;;;;5.40;1.50;;;4.60;99.90;;;;;;5026226;28;20534;-69
2022/01/31 09:21:41;;;;;;;2.17;1.60;;;4.60;99.90;;;;;;5009719;28;20515;-70
2022/01/31 09:24:07;;;;;;;3.27;1.30;;;4.60;99.90;;;;;;5028256;28;20291;-70
2022/01/31 09:26:34;;;;;;;4.53;1.57;;;4.60;99.90;;;;;;4994696;28;20235;-69
2022/01/31 09:29:00;;;;;;;1.93;1.50;;;4.70;99.90;;;;;;5010644;28;20515;-70
2022/01/31 09:31:26;;;;;;;2.97;1.43;;;4.70;99.90;;;;;;5010105;28;20548;-69
2022/01/31 09:33:51;;;;;;;3.60;1.07;;;4.70;99.90;;;;;;5026605;28;21048;-68
2022/01/31 09:36:18;;;;;;;1.43;1.20;;;4.70;99.90;;;;;;5013294;28;20272;-69
2022/01/31 09:38:43;;;;;;;2.37;1.57;;;4.70;99.90;;;;;;5021017;28;20237;-68
2022/01/31 09:41:14;;;;;;;4.07;1.63;;;4.80;99.90;;;;;;5028530;28;20458;-68
2022/01/31 09:46:34;;;;;;;1.47;1.20;;;4.80;99.90;;;;;;5010764;28;20535;-70
2022/01/31 09:48:59;;;;;;;1.23;1.13;;;4.90;99.90;;;;;;5010855;28;20467;-69
2022/01/31 09:51:26;;;;;;;5.63;1.67;;;4.90;99.90;;;;;;5011075;28;20498;-68
2022/01/31 09:54:01;;;;;;;1.40;1.30;;;4.90;99.90;;;;;;5009160;28;20276;-69
2022/01/31 09:56:33;;;;;;;1.23;1.13;;;5.00;99.90;;;;;;5018906;28;20459;-70
2022/01/31 09:59:00;;;;;;;1.70;1.00;;;5.00;99.90;;;;;;5027816;28;20459;-68
2022/01/31 10:01:46;;;;;;;1.33;1.20;;;5.00;99.90;;;;;;4993832;28;20459;-68
2022/01/31 10:04:18;;;;;;;1.23;0.90;;;5.00;99.90;;;;;;5023079;28;20533;-70
2022/01/31 10:06:47;;;;;;;3.20;1.23;;;5.00;99.90;;;;;;5012619;28;20534;-69
2022/01/31 10:09:19;;;;;;;1.47;1.37;;;5.10;99.90;;;;;;5028414;28;20459;-70
2022/01/31 10:11:57;;;;;;;3.10;1.20;;;5.10;99.90;;;;;;5009471;28;20463;-69
2022/01/31 10:17:28;;;;;;;1.00;0.90;;;5.10;99.90;;;;;;5026984;28;20566;-69
2022/01/31 10:20:00;;;;;;;2.30;0.83;;;5.20;99.90;;;;;;5014583;28;20451;-70
2022/01/31 10:22:29;;;;;;;1.10;0.90;;;5.20;99.90;;;;;;5009326;28;20467;-70
2022/01/31 10:24:57;;;;;;;0.63;0.63;;;5.20;99.90;;;;;;5008798;28;20531;-70
2022/01/31 10:27:28;;;;;;;0.63;0.63;;;5.20;99.90;;;;;;5010093;28;20467;-69
2022/01/31 10:30:15;;;;;;;0.70;0.70;;;5.30;99.90;;;;;;5026026;28;20490;-69
2022/01/31 10:32:48;;;;;;;0.90;0.60;;;5.30;99.90;;;;;;4993091;28;20479;-71
2022/01/31 10:35:28;;;;;;;1.20;1.10;;;5.30;99.90;;;;;;5008050;28;20472;-69
2022/01/31 10:38:01;;;;;;;11.57;6.10;;;5.30;99.90;;;;;;5016749;28;20463;-69
2022/01/31 10:57:04;;;;;;;3.30;2.13;;;5.40;99.90;;;;;;5009638;28;20463;-69
2022/01/31 10:59:34;;;;;;;1.63;0.80;;;5.40;99.90;;;;;;5027641;28;20995;-70
2022/01/31 11:02:02;;;;;;;1.80;0.80;;;5.40;99.90;;;;;;4992695;28;20473;-70
2022/01/31 11:04:47;;;;;;;2.30;1.17;;;5.40;99.90;;;;;;5009305;28;20474;-69
2022/01/31 11:07:18;;;;;;;2.97;1.30;;;5.40;99.90;;;;;;5027091;28;20459;-69
2022/01/31 11:09:49;;;;;;;1.83;1.60;;;5.40;99.90;;;;;;4991395;28;20463;-68
2022/01/31 11:12:15;;;;;;;2.00;1.40;;;5.40;99.90;;;;;;5025899;28;20475;-71
2022/01/31 11:14:43;;;;;;;1.73;1.60;;;5.40;99.90;;;;;;4992756;28;20459;-71
2022/01/31 11:17:15;;;;;;;7.50;2.37;;;5.40;99.90;;;;;;5008476;28;20451;-69
2022/01/31 11:19:47;;;;;;;2.93;1.70;;;5.40;99.90;;;;;;5008661;28;20458;-70
2022/01/31 11:22:15;;;;;;;2.40;1.00;;;5.40;99.90;;;;;;5008731;28;20474;-70
2022/01/31 11:24:47;;;;;;;0.73;0.73;;;5.40;99.90;;;;;;5008548;28;20589;-70
2022/01/31 11:27:17;;;;;;;3.57;1.10;;;5.40;99.90;;;;;;5009542;28;21036;-69
2022/01/31 11:29:48;;;;;;;3.90;1.17;;;5.40;99.90;;;;;;5026390;28;20459;-70
2022/01/31 11:32:14;;;;;;;1.07;0.90;;;5.40;99.90;;;;;;5026982;28;20466;-70
2022/01/31 11:34:45;;;;;;;1.30;1.20;;;5.40;99.90;;;;;;5008819;28;20466;-70
2022/01/31 11:37:13;;;;;;;1.93;1.73;;;5.40;99.90;;;;;;5009076;28;20476;-69
2022/01/31 11:39:42;;;;;;;5.17;3.30;;;5.50;99.90;;;;;;5026898;28;20542;-69
2022/01/31 11:42:09;;;;;;;14.10;8.23;;;5.50;99.90;;;;;;5026403;28;20478;-71
2022/01/31 11:44:40;;;;;;;9.97;5.30;;;5.50;99.90;;;;;;5009309;28;20493;-69
2022/01/31 12:54:15;;;;;;;2.77;0.90;;;5.60;99.90;;;;;;5010089;28;20459;-70
2022/01/31 12:56:41;;;;;;;0.77;0.60;;;5.60;99.90;;;;;;4992881;28;20471;-69
2022/01/31 12:59:13;;;;;;;0.60;0.60;;;5.60;99.90;;;;;;5018267;28;20471;-69
2022/01/31 13:01:47;;;;;;;0.60;0.60;;;5.60;99.90;;;;;;5011948;28;20459;-69
2022/01/31 13:04:21;;;;;;;0.83;0.70;;;5.60;99.90;;;;;;4995541;28;20478;-68
2022/01/31 13:07:01;;;;;;;0.60;0.60;;;5.60;99.90;;;;;;4995496;28;20467;-69
2022/01/31 13:09:27;;;;;;;0.47;0.47;;;5.60;99.90;;;;;;5012023;28;20466;-69
2022/01/31 13:11:56;;;;;;;2.57;1.10;;;5.60;99.90;;;;;;5010948;28;20984;-70
2022/01/31 13:14:25;;;;;;;0.80;0.80;;;5.60;99.90;;;;;;4995782;28;20251;-70
2022/01/31 13:17:14;;;;;;;1.00;0.73;;;5.60;99.90;;;;;;4995388;28;20984;-69
2022/01/31 13:19:55;;;;;;;0.40;0.40;;;5.60;99.90;;;;;;5011837;28;20462;-70
2022/01/31 13:22:46;;;;;;;0.90;0.90;;;5.60;99.90;;;;;;5011204;28;20451;-70
2022/01/31 13:25:15;;;;;;;0.80;0.70;;;5.60;99.90;;;;;;5010180;28;20828;-70
2022/01/31 13:27:46;;;;;;;1.43;0.60;;;5.60;99.90;;;;;;5026663;28;20546;-70
2022/01/31 13:30:15;;;;;;;0.83;0.70;;;5.60;99.90;;;;;;5011784;28;20504;-70
2022/01/31 13:32:41;;;;;;;3.13;1.10;;;5.60;99.90;;;;;;5010186;28;20550;-70
2022/01/31 13:35:13;;;;;;;2.30;0.90;;;5.60;99.90;;;;;;5028601;28;20602;-69
2022/01/31 13:37:55;;;;;;;1.10;0.80;;;5.60;99.90;;;;;;5027673;28;20218;-70
2022/01/31 13:40:49;;;;;;;3.60;1.30;;;5.50;99.90;;;;;;5010269;28;20463;-69
2022/01/31 13:43:16;;;;;;;1.00;0.70;;;5.50;99.90;;;;;;4999459;28;20518;-69
2022/01/31 13:48:36;;;;;;;2.40;0.97;;;5.50;99.90;;;;;;5011071;28;20521;-68
2022/01/31 13:51:05;;;;;;;1.07;0.50;;;5.50;99.90;;;;;;5028407;28;20474;-69
2022/01/31 13:53:39;;;;;;;2.30;1.17;;;5.50;99.90;;;;;;5027002;28;20463;-69
2022/01/31 13:56:10;;;;;;;1.73;0.50;;;5.50;99.90;;;;;;5019040;28;20455;-69
2022/01/31 13:58:38;;;;;;;1.87;0.80;;;5.40;99.90;;;;;;4994905;28;20447;-70
2022/01/31 14:01:05;;;;;;;0.70;0.70;;;5.40;99.90;;;;;;5011266;28;20443;-69
2022/01/31 14:03:40;;;;;;;0.73;0.63;;;5.40;99.90;;;;;;5012022;28;20465;-69
2022/01/31 14:06:14;;;;;;;1.10;0.60;;;5.40;99.90;;;;;;5012049;28;20968;-70
2022/01/31 14:08:43;;;;;;;0.70;0.70;;;5.40;99.90;;;;;;5012834;28;20459;-70
2022/01/31 14:11:13;;;;;;;0.67;0.67;;;5.40;99.90;;;;;;5012145;28;20510;-70
2022/01/31 14:13:43;;;;;;;1.50;0.57;;;5.40;99.90;;;;;;5010479;28;20471;-69
2022/01/31 14:16:15;;;;;;;1.90;0.80;;;5.40;99.90;;;;;;4993906;28;20455;-69
2022/01/31 14:18:45;;;;;;;0.80;0.70;;;5.40;99.90;;;;;;5010686;28;20534;-71
2022/01/31 14:21:11;;;;;;;1.10;0.80;;;5.40;99.90;;;;;;5010131;28;20489;-70
2022/01/31 14:23:38;;;;;;;2.80;0.93;;;5.50;99.90;;;;;;4994099;28;20451;-69
2022/01/31 14:26:12;;;;;;;1.63;0.63;;;5.50;99.90;;;;;;5009773;28;20232;-70
2022/01/31 14:28:43;;;;;;;1.90;1.10;;;5.50;99.90;;;;;;5010671;28;20477;-70
2022/01/31 14:31:11;;;;;;;0.40;0.37;;;5.50;99.90;;;;;;5010107;28;20518;-69
2022/01/31 14:33:47;;;;;;;1.00;0.70;;;5.50;99.90;;;;;;5010083;28;20473;-69
2022/01/31 14:36:16;;;;;;;1.57;0.83;;;5.50;99.90;;;;;;5009951;28;20469;-70
2022/01/31 14:39:10;;;;;;;1.00;0.90;;;5.50;99.90;;;;;;5010005;28;20467;-70
2022/01/31 14:49:41;;;;;;;1.43;1.30;;;5.60;99.90;;;;;;5010479;28;20462;-69
2022/01/31 14:52:08;;;;;;;1.70;1.37;;;5.50;99.90;;;;;;5010016;28;20471;-70
2022/01/31 14:54:35;;;;;;;1.40;1.30;;;5.50;99.90;;;;;;5008915;28;20643;-69